sensor_id;sensor_type;location;lat;lon;timestamp;P1;durP1;ratioP1;P2;durP2;ratioP2
76138;SDS011;65138;50.946;7.074;2023-02-11T00:00:11;5.82;;;3.03;;
76138;SDS011;65138;50.946;7.074;2023-02-11T00:02:38;4.10;;;2.65;;
76138;SDS011;65138;50.946;7.074;2023-02-11T00:05:04;5.18;;;2.75;;
76138;SDS011;65138;50.946;7.074;2023-02-11T00:07:31;4.60;;;2.75;;
76138;SDS011;65138;50.946;7.074;2023-02-11T00:09:58;4.78;;;2.47;;
76138;SDS011;65138;50.946;7.074;2023-02-11T00:12:24;4.43;;;3.00;;
76138;SDS011;65138;50.946;7.074;2023-02-11T00:14:49;5.07;;;2.83;;
76138;SDS011;65138;50.946;7.074;2023-02-11T00:17:15;5.18;;;3.30;;
76138;SDS011;65138;50.946;7.074;2023-02-11T00:19:41;4.25;;;2.53;;
76138;SDS011;65138;50.946;7.074;2023-02-11T00:22:06;6.15;;;3.20;;
76138;SDS011;65138;50.946;7.074;2023-02-11T00:24:32;4.18;;;2.90;;
76138;SDS011;65138;50.946;7.074;2023-02-11T00:26:59;5.47;;;2.97;;
76138;SDS011;65138;50.946;7.074;2023-02-11T00:29:25;4.80;;;2.92;;
76138;SDS011;65138;50.946;7.074;2023-02-11T00:31:51;4.30;;;2.72;;
76138;SDS011;65138;50.946;7.074;2023-02-11T00:34:16;4.95;;;2.83;;
76138;SDS011;65138;50.946;7.074;2023-02-11T00:36:42;3.95;;;2.75;;
76138;SDS011;65138;50.946;7.074;2023-02-11T00:39:07;4.97;;;2.75;;
76138;SDS011;65138;50.946;7.074;2023-02-11T00:41:34;4.75;;;2.67;;
76138;SDS011;65138;50.946;7.074;2023-02-11T00:44:00;5.63;;;2.95;;
76138;SDS011;65138;50.946;7.074;2023-02-11T00:46:26;4.90;;;2.85;;
76138;SDS011;65138;50.946;7.074;2023-02-11T00:48:52;5.10;;;2.65;;
76138;SDS011;65138;50.946;7.074;2023-02-11T00:51:21;4.70;;;2.40;;
76138;SDS011;65138;50.946;7.074;2023-02-11T00:53:49;4.88;;;2.97;;
76138;SDS011;65138;50.946;7.074;2023-02-11T00:56:15;3.90;;;2.83;;
76138;SDS011;65138;50.946;7.074;2023-02-11T00:58:40;3.97;;;2.85;;
76138;SDS011;65138;50.946;7.074;2023-02-11T01:01:06;4.65;;;2.58;;
76138;SDS011;65138;50.946;7.074;2023-02-11T01:03:32;5.50;;;3.22;;
76138;SDS011;65138;50.946;7.074;2023-02-11T01:05:58;4.95;;;3.00;;
76138;SDS011;65138;50.946;7.074;2023-02-11T01:08:26;4.95;;;2.97;;
76138;SDS011;65138;50.946;7.074;2023-02-11T01:10:53;5.28;;;3.10;;
76138;SDS011;65138;50.946;7.074;2023-02-11T01:13:20;5.57;;;2.80;;
76138;SDS011;65138;50.946;7.074;2023-02-11T01:15:46;4.95;;;3.17;;
76138;SDS011;65138;50.946;7.074;2023-02-11T01:18:13;3.97;;;2.63;;
76138;SDS011;65138;50.946;7.074;2023-02-11T01:20:40;4.78;;;3.10;;
76138;SDS011;65138;50.946;7.074;2023-02-11T01:23:06;5.40;;;2.97;;
76138;SDS011;65138;50.946;7.074;2023-02-11T01:25:32;5.45;;;2.92;;
76138;SDS011;65138;50.946;7.074;2023-02-11T01:27:57;4.97;;;3.00;;
76138;SDS011;65138;50.946;7.074;2023-02-11T01:30:23;5.20;;;2.97;;
76138;SDS011;65138;50.946;7.074;2023-02-11T01:32:49;5.20;;;3.15;;
76138;SDS011;65138;50.946;7.074;2023-02-11T01:35:14;4.75;;;3.00;;
76138;SDS011;65138;50.946;7.074;2023-02-11T01:37:40;4.68;;;3.17;;
76138;SDS011;65138;50.946;7.074;2023-02-11T01:40:09;4.97;;;2.88;;
76138;SDS011;65138;50.946;7.074;2023-02-11T01:42:38;5.97;;;3.30;;
76138;SDS011;65138;50.946;7.074;2023-02-11T01:48:19;5.03;;;2.90;;
76138;SDS011;65138;50.946;7.074;2023-02-11T01:50:49;5.28;;;3.22;;
76138;SDS011;65138;50.946;7.074;2023-02-11T01:53:19;5.30;;;2.95;;
76138;SDS011;65138;50.946;7.074;2023-02-11T01:56:04;4.35;;;2.60;;
76138;SDS011;65138;50.946;7.074;2023-02-11T01:58:50;5.20;;;2.95;;
76138;SDS011;65138;50.946;7.074;2023-02-11T02:01:21;5.50;;;3.17;;
76138;SDS011;65138;50.946;7.074;2023-02-11T02:03:51;4.32;;;2.53;;
76138;SDS011;65138;50.946;7.074;2023-02-11T02:06:34;5.50;;;2.97;;
76138;SDS011;65138;50.946;7.074;2023-02-11T02:09:22;5.03;;;2.55;;
76138;SDS011;65138;50.946;7.074;2023-02-11T02:11:52;4.32;;;2.80;;
76138;SDS011;65138;50.946;7.074;2023-02-11T02:14:18;4.85;;;2.72;;
76138;SDS011;65138;50.946;7.074;2023-02-11T02:16:44;4.38;;;2.65;;
76138;SDS011;65138;50.946;7.074;2023-02-11T02:25:35;4.47;;;2.63;;
76138;SDS011;65138;50.946;7.074;2023-02-11T02:28:33;5.38;;;2.83;;
76138;SDS011;65138;50.946;7.074;2023-02-11T02:31:33;4.18;;;2.58;;
76138;SDS011;65138;50.946;7.074;2023-02-11T02:34:08;4.13;;;2.58;;
76138;SDS011;65138;50.946;7.074;2023-02-11T02:39:25;3.80;;;2.40;;
76138;SDS011;65138;50.946;7.074;2023-02-11T02:41:55;4.72;;;2.78;;
76138;SDS011;65138;50.946;7.074;2023-02-11T02:44:21;3.85;;;2.72;;
76138;SDS011;65138;50.946;7.074;2023-02-11T02:46:47;4.80;;;2.63;;
76138;SDS011;65138;50.946;7.074;2023-02-11T02:49:14;4.03;;;2.17;;
76138;SDS011;65138;50.946;7.074;2023-02-11T02:59:49;4.80;;;2.42;;
76138;SDS011;65138;50.946;7.074;2023-02-11T03:05:37;4.22;;;2.75;;
76138;SDS011;65138;50.946;7.074;2023-02-11T03:08:41;5.10;;;2.70;;
76138;SDS011;65138;50.946;7.074;2023-02-11T03:11:11;3.67;;;2.20;;
76138;SDS011;65138;50.946;7.074;2023-02-11T03:13:42;4.03;;;2.47;;
76138;SDS011;65138;50.946;7.074;2023-02-11T03:16:12;4.45;;;2.40;;
76138;SDS011;65138;50.946;7.074;2023-02-11T03:18:42;3.35;;;2.30;;
76138;SDS011;65138;50.946;7.074;2023-02-11T03:23:49;3.42;;;2.15;;
76138;SDS011;65138;50.946;7.074;2023-02-11T03:26:24;3.85;;;2.08;;
76138;SDS011;65138;50.946;7.074;2023-02-11T03:28:54;4.25;;;2.72;;
76138;SDS011;65138;50.946;7.074;2023-02-11T03:31:30;4.10;;;2.67;;
76138;SDS011;65138;50.946;7.074;2023-02-11T03:39:45;4.00;;;2.30;;
76138;SDS011;65138;50.946;7.074;2023-02-11T03:42:17;3.65;;;2.35;;
76138;SDS011;65138;50.946;7.074;2023-02-11T03:44:48;5.53;;;2.50;;
76138;SDS011;65138;50.946;7.074;2023-02-11T03:47:18;4.60;;;2.90;;
76138;SDS011;65138;50.946;7.074;2023-02-11T03:49:48;3.95;;;2.33;;
76138;SDS011;65138;50.946;7.074;2023-02-11T03:52:16;4.75;;;2.83;;
76138;SDS011;65138;50.946;7.074;2023-02-11T03:54:44;3.85;;;2.50;;
76138;SDS011;65138;50.946;7.074;2023-02-11T03:57:13;4.32;;;2.75;;
76138;SDS011;65138;50.946;7.074;2023-02-11T03:59:53;4.10;;;2.40;;
76138;SDS011;65138;50.946;7.074;2023-02-11T04:02:28;3.45;;;2.25;;
76138;SDS011;65138;50.946;7.074;2023-02-11T04:04:56;3.58;;;2.30;;
76138;SDS011;65138;50.946;7.074;2023-02-11T04:07:22;5.45;;;2.83;;
76138;SDS011;65138;50.946;7.074;2023-02-11T04:09:49;3.65;;;1.90;;
76138;SDS011;65138;50.946;7.074;2023-02-11T04:12:14;3.95;;;2.70;;
76138;SDS011;65138;50.946;7.074;2023-02-11T04:14:41;4.15;;;2.80;;
76138;SDS011;65138;50.946;7.074;2023-02-11T04:17:07;3.85;;;2.92;;
76138;SDS011;65138;50.946;7.074;2023-02-11T04:19:33;3.97;;;2.67;;
76138;SDS011;65138;50.946;7.074;2023-02-11T04:21:58;3.70;;;2.35;;
76138;SDS011;65138;50.946;7.074;2023-02-11T04:24:24;4.65;;;2.10;;
76138;SDS011;65138;50.946;7.074;2023-02-11T04:26:50;3.33;;;2.05;;
76138;SDS011;65138;50.946;7.074;2023-02-11T04:29:16;4.57;;;2.28;;
76138;SDS011;65138;50.946;7.074;2023-02-11T04:31:42;4.60;;;2.25;;
76138;SDS011;65138;50.946;7.074;2023-02-11T04:34:09;3.75;;;2.53;;
76138;SDS011;65138;50.946;7.074;2023-02-11T04:36:35;4.10;;;2.30;;
76138;SDS011;65138;50.946;7.074;2023-02-11T04:39:01;4.10;;;2.20;;
76138;SDS011;65138;50.946;7.074;2023-02-11T04:41:26;4.88;;;2.40;;
76138;SDS011;65138;50.946;7.074;2023-02-11T04:43:57;3.60;;;2.30;;
76138;SDS011;65138;50.946;7.074;2023-02-11T04:46:23;5.35;;;2.50;;
76138;SDS011;65138;50.946;7.074;2023-02-11T04:48:48;3.42;;;2.30;;
76138;SDS011;65138;50.946;7.074;2023-02-11T04:51:14;3.65;;;2.20;;
76138;SDS011;65138;50.946;7.074;2023-02-11T04:53:40;3.30;;;1.77;;
76138;SDS011;65138;50.946;7.074;2023-02-11T04:56:06;4.70;;;2.30;;
76138;SDS011;65138;50.946;7.074;2023-02-11T04:58:33;5.15;;;2.55;;
76138;SDS011;65138;50.946;7.074;2023-02-11T05:01:07;3.75;;;2.30;;
76138;SDS011;65138;50.946;7.074;2023-02-11T05:03:34;4.32;;;1.98;;
76138;SDS011;65138;50.946;7.074;2023-02-11T05:06:01;3.40;;;2.22;;
76138;SDS011;65138;50.946;7.074;2023-02-11T05:08:27;3.20;;;2.13;;
76138;SDS011;65138;50.946;7.074;2023-02-11T05:10:53;3.80;;;2.28;;
76138;SDS011;65138;50.946;7.074;2023-02-11T05:13:19;3.55;;;1.85;;
76138;SDS011;65138;50.946;7.074;2023-02-11T05:15:44;3.38;;;2.00;;
76138;SDS011;65138;50.946;7.074;2023-02-11T05:18:10;4.40;;;1.88;;
76138;SDS011;65138;50.946;7.074;2023-02-11T05:20:39;3.47;;;2.17;;
76138;SDS011;65138;50.946;7.074;2023-02-11T05:23:09;3.97;;;2.25;;
76138;SDS011;65138;50.946;7.074;2023-02-11T05:25:35;4.10;;;2.45;;
76138;SDS011;65138;50.946;7.074;2023-02-11T05:28:01;3.90;;;1.80;;
76138;SDS011;65138;50.946;7.074;2023-02-11T05:30:28;3.58;;;2.10;;
76138;SDS011;65138;50.946;7.074;2023-02-11T05:32:53;3.55;;;1.98;;
76138;SDS011;65138;50.946;7.074;2023-02-11T05:35:19;3.17;;;2.03;;
76138;SDS011;65138;50.946;7.074;2023-02-11T05:37:45;5.18;;;2.50;;
76138;SDS011;65138;50.946;7.074;2023-02-11T05:40:11;3.42;;;1.90;;
76138;SDS011;65138;50.946;7.074;2023-02-11T05:42:37;3.42;;;2.38;;
76138;SDS011;65138;50.946;7.074;2023-02-11T05:45:03;3.35;;;2.30;;
76138;SDS011;65138;50.946;7.074;2023-02-11T05:47:28;3.22;;;1.92;;
76138;SDS011;65138;50.946;7.074;2023-02-11T05:49:54;3.33;;;2.00;;
76138;SDS011;65138;50.946;7.074;2023-02-11T05:52:20;2.95;;;1.50;;
76138;SDS011;65138;50.946;7.074;2023-02-11T05:54:46;3.35;;;2.30;;
76138;SDS011;65138;50.946;7.074;2023-02-11T05:57:12;4.28;;;2.03;;
76138;SDS011;65138;50.946;7.074;2023-02-11T05:59:38;3.65;;;1.70;;
76138;SDS011;65138;50.946;7.074;2023-02-11T06:02:05;3.35;;;1.77;;
76138;SDS011;65138;50.946;7.074;2023-02-11T06:04:32;4.53;;;2.40;;
76138;SDS011;65138;50.946;7.074;2023-02-11T06:06:58;3.30;;;2.10;;
76138;SDS011;65138;50.946;7.074;2023-02-11T06:09:24;4.07;;;2.08;;
76138;SDS011;65138;50.946;7.074;2023-02-11T06:11:50;3.00;;;1.80;;
76138;SDS011;65138;50.946;7.074;2023-02-11T06:14:16;2.97;;;1.70;;
76138;SDS011;65138;50.946;7.074;2023-02-11T06:16:42;3.38;;;1.90;;
76138;SDS011;65138;50.946;7.074;2023-02-11T06:19:08;3.78;;;1.80;;
76138;SDS011;65138;50.946;7.074;2023-02-11T06:21:35;3.30;;;1.67;;
76138;SDS011;65138;50.946;7.074;2023-02-11T06:24:00;3.03;;;2.10;;
76138;SDS011;65138;50.946;7.074;2023-02-11T06:26:26;3.38;;;1.77;;
76138;SDS011;65138;50.946;7.074;2023-02-11T06:28:51;3.65;;;1.85;;
76138;SDS011;65138;50.946;7.074;2023-02-11T06:31:17;3.33;;;1.98;;
76138;SDS011;65138;50.946;7.074;2023-02-11T06:33:43;3.42;;;2.00;;
76138;SDS011;65138;50.946;7.074;2023-02-11T06:36:11;3.03;;;1.77;;
76138;SDS011;65138;50.946;7.074;2023-02-11T06:38:39;2.67;;;1.75;;
76138;SDS011;65138;50.946;7.074;2023-02-11T06:41:05;4.93;;;1.90;;
76138;SDS011;65138;50.946;7.074;2023-02-11T06:43:34;2.75;;;1.77;;
76138;SDS011;65138;50.946;7.074;2023-02-11T06:45:59;3.47;;;1.70;;
76138;SDS011;65138;50.946;7.074;2023-02-11T06:48:25;3.95;;;2.15;;
76138;SDS011;65138;50.946;7.074;2023-02-11T06:50:52;3.50;;;1.63;;
76138;SDS011;65138;50.946;7.074;2023-02-11T06:53:18;3.03;;;1.83;;
76138;SDS011;65138;50.946;7.074;2023-02-11T06:55:44;3.90;;;1.60;;
76138;SDS011;65138;50.946;7.074;2023-02-11T06:58:09;3.30;;;1.75;;
76138;SDS011;65138;50.946;7.074;2023-02-11T07:00:36;2.70;;;1.73;;
76138;SDS011;65138;50.946;7.074;2023-02-11T07:03:02;4.45;;;1.90;;
76138;SDS011;65138;50.946;7.074;2023-02-11T07:05:27;3.70;;;2.17;;
76138;SDS011;65138;50.946;7.074;2023-02-11T07:07:53;2.75;;;1.63;;
76138;SDS011;65138;50.946;7.074;2023-02-11T07:10:19;3.03;;;1.77;;
76138;SDS011;65138;50.946;7.074;2023-02-11T07:12:44;3.65;;;1.50;;
76138;SDS011;65138;50.946;7.074;2023-02-11T07:15:10;2.70;;;1.50;;
76138;SDS011;65138;50.946;7.074;2023-02-11T07:17:35;9.05;;;5.35;;
76138;SDS011;65138;50.946;7.074;2023-02-11T07:20:01;10.07;;;5.50;;
76138;SDS011;65138;50.946;7.074;2023-02-11T07:22:27;9.98;;;4.97;;
76138;SDS011;65138;50.946;7.074;2023-02-11T07:24:54;6.45;;;3.50;;
76138;SDS011;65138;50.946;7.074;2023-02-11T07:27:20;8.70;;;3.85;;
76138;SDS011;65138;50.946;7.074;2023-02-11T07:29:45;4.90;;;2.83;;
76138;SDS011;65138;50.946;7.074;2023-02-11T07:32:12;8.18;;;3.50;;
76138;SDS011;65138;50.946;7.074;2023-02-11T07:34:38;5.88;;;2.53;;
76138;SDS011;65138;50.946;7.074;2023-02-11T07:37:03;5.18;;;2.70;;
76138;SDS011;65138;50.946;7.074;2023-02-11T07:39:29;5.35;;;2.03;;
76138;SDS011;65138;50.946;7.074;2023-02-11T07:41:55;5.63;;;2.83;;
76138;SDS011;65138;50.946;7.074;2023-02-11T07:44:22;4.45;;;2.17;;
76138;SDS011;65138;50.946;7.074;2023-02-11T07:46:47;4.05;;;1.90;;
76138;SDS011;65138;50.946;7.074;2023-02-11T07:49:14;7.70;;;2.40;;
76138;SDS011;65138;50.946;7.074;2023-02-11T07:51:40;4.30;;;1.90;;
76138;SDS011;65138;50.946;7.074;2023-02-11T07:54:06;4.18;;;2.00;;
76138;SDS011;65138;50.946;7.074;2023-02-11T07:56:32;4.13;;;1.88;;
76138;SDS011;65138;50.946;7.074;2023-02-11T07:58:58;4.13;;;2.30;;
76138;SDS011;65138;50.946;7.074;2023-02-11T08:01:25;4.65;;;2.10;;
76138;SDS011;65138;50.946;7.074;2023-02-11T08:03:53;3.70;;;1.73;;
76138;SDS011;65138;50.946;7.074;2023-02-11T08:06:23;3.70;;;2.03;;
76138;SDS011;65138;50.946;7.074;2023-02-11T08:08:51;3.20;;;1.90;;
76138;SDS011;65138;50.946;7.074;2023-02-11T08:11:25;4.03;;;2.15;;
76138;SDS011;65138;50.946;7.074;2023-02-11T08:13:52;5.57;;;2.15;;
76138;SDS011;65138;50.946;7.074;2023-02-11T08:18:47;3.22;;;1.65;;
76138;SDS011;65138;50.946;7.074;2023-02-11T08:21:13;4.28;;;2.20;;
76138;SDS011;65138;50.946;7.074;2023-02-11T08:23:40;3.17;;;1.80;;
76138;SDS011;65138;50.946;7.074;2023-02-11T08:26:11;5.20;;;2.03;;
76138;SDS011;65138;50.946;7.074;2023-02-11T08:28:40;3.60;;;1.67;;
76138;SDS011;65138;50.946;7.074;2023-02-11T08:31:08;3.72;;;1.55;;
76138;SDS011;65138;50.946;7.074;2023-02-11T08:33:43;3.90;;;1.52;;
76138;SDS011;65138;50.946;7.074;2023-02-11T08:36:18;11.10;;;4.88;;
76138;SDS011;65138;50.946;7.074;2023-02-11T08:38:47;5.38;;;3.08;;
76138;SDS011;65138;50.946;7.074;2023-02-11T08:41:14;13.85;;;7.18;;
76138;SDS011;65138;50.946;7.074;2023-02-11T08:43:41;13.60;;;6.53;;
76138;SDS011;65138;50.946;7.074;2023-02-11T08:46:08;10.70;;;6.18;;
76138;SDS011;65138;50.946;7.074;2023-02-11T08:48:37;12.10;;;5.43;;
76138;SDS011;65138;50.946;7.074;2023-02-11T08:51:05;10.13;;;4.55;;
76138;SDS011;65138;50.946;7.074;2023-02-11T08:53:35;8.68;;;4.18;;
76138;SDS011;65138;50.946;7.074;2023-02-11T08:56:04;6.75;;;3.20;;
76138;SDS011;65138;50.946;7.074;2023-02-11T08:58:31;6.85;;;3.55;;
76138;SDS011;65138;50.946;7.074;2023-02-11T09:00:58;8.15;;;2.90;;
76138;SDS011;65138;50.946;7.074;2023-02-11T09:03:24;9.18;;;3.10;;
76138;SDS011;65138;50.946;7.074;2023-02-11T09:05:49;5.55;;;3.10;;
76138;SDS011;65138;50.946;7.074;2023-02-11T09:08:19;4.82;;;2.75;;
76138;SDS011;65138;50.946;7.074;2023-02-11T09:10:46;5.00;;;2.40;;
76138;SDS011;65138;50.946;7.074;2023-02-11T09:13:12;5.35;;;2.60;;
76138;SDS011;65138;50.946;7.074;2023-02-11T09:15:38;5.07;;;2.63;;
76138;SDS011;65138;50.946;7.074;2023-02-11T09:18:04;7.13;;;2.30;;
76138;SDS011;65138;50.946;7.074;2023-02-11T09:20:30;6.43;;;2.22;;
76138;SDS011;65138;50.946;7.074;2023-02-11T09:22:56;5.85;;;2.00;;
76138;SDS011;65138;50.946;7.074;2023-02-11T09:25:24;4.88;;;1.92;;
76138;SDS011;65138;50.946;7.074;2023-02-11T09:27:50;3.38;;;2.03;;
76138;SDS011;65138;50.946;7.074;2023-02-11T09:30:17;3.97;;;1.80;;
76138;SDS011;65138;50.946;7.074;2023-02-11T09:32:43;4.72;;;2.17;;
76138;SDS011;65138;50.946;7.074;2023-02-11T09:35:09;4.53;;;1.80;;
76138;SDS011;65138;50.946;7.074;2023-02-11T09:37:35;3.92;;;2.17;;
76138;SDS011;65138;50.946;7.074;2023-02-11T09:40:02;3.58;;;1.92;;
76138;SDS011;65138;50.946;7.074;2023-02-11T09:45:26;9.82;;;2.72;;
76138;SDS011;65138;50.946;7.074;2023-02-11T09:50:27;4.80;;;2.33;;
76138;SDS011;65138;50.946;7.074;2023-02-11T09:53:18;5.05;;;1.80;;
76138;SDS011;65138;50.946;7.074;2023-02-11T09:56:00;3.75;;;2.15;;
76138;SDS011;65138;50.946;7.074;2023-02-11T09:58:34;7.88;;;2.28;;
76138;SDS011;65138;50.946;7.074;2023-02-11T10:01:15;3.13;;;1.83;;
76138;SDS011;65138;50.946;7.074;2023-02-11T10:06:42;4.78;;;1.95;;
76138;SDS011;65138;50.946;7.074;2023-02-11T10:12:26;4.00;;;1.80;;
76138;SDS011;65138;50.946;7.074;2023-02-11T10:15:14;4.28;;;1.65;;
76138;SDS011;65138;50.946;7.074;2023-02-11T10:17:58;3.75;;;1.65;;
76138;SDS011;65138;50.946;7.074;2023-02-11T10:20:33;4.50;;;2.20;;
76138;SDS011;65138;50.946;7.074;2023-02-11T10:25:43;6.25;;;1.60;;
76138;SDS011;65138;50.946;7.074;2023-02-11T10:28:14;6.95;;;1.73;;
76138;SDS011;65138;50.946;7.074;2023-02-11T10:30:52;6.93;;;3.17;;
76138;SDS011;65138;50.946;7.074;2023-02-11T10:33:49;7.53;;;4.18;;
76138;SDS011;65138;50.946;7.074;2023-02-11T10:36:25;6.75;;;3.28;;
76138;SDS011;65138;50.946;7.074;2023-02-11T10:41:23;5.85;;;2.72;;
76138;SDS011;65138;50.946;7.074;2023-02-11T10:43:53;4.63;;;2.50;;
76138;SDS011;65138;50.946;7.074;2023-02-11T10:46:23;4.38;;;2.50;;
76138;SDS011;65138;50.946;7.074;2023-02-11T10:48:53;6.90;;;2.60;;
76138;SDS011;65138;50.946;7.074;2023-02-11T10:51:25;4.03;;;2.33;;
76138;SDS011;65138;50.946;7.074;2023-02-11T10:56:28;4.13;;;1.98;;
76138;SDS011;65138;50.946;7.074;2023-02-11T10:59:00;5.28;;;2.08;;
76138;SDS011;65138;50.946;7.074;2023-02-11T11:01:45;3.60;;;1.70;;
76138;SDS011;65138;50.946;7.074;2023-02-11T11:07:20;3.25;;;2.00;;
76138;SDS011;65138;50.946;7.074;2023-02-11T11:15:15;3.22;;;1.60;;
76138;SDS011;65138;50.946;7.074;2023-02-11T11:17:46;6.95;;;3.67;;
76138;SDS011;65138;50.946;7.074;2023-02-11T11:20:26;9.82;;;4.38;;
76138;SDS011;65138;50.946;7.074;2023-02-11T11:28:36;7.07;;;2.70;;
76138;SDS011;65138;50.946;7.074;2023-02-11T11:31:15;6.40;;;2.63;;
76138;SDS011;65138;50.946;7.074;2023-02-11T11:33:45;3.97;;;2.33;;
76138;SDS011;65138;50.946;7.074;2023-02-11T11:36:16;4.70;;;2.25;;
76138;SDS011;65138;50.946;7.074;2023-02-11T11:38:49;5.72;;;3.70;;
76138;SDS011;65138;50.946;7.074;2023-02-11T11:41:23;9.25;;;4.53;;
76138;SDS011;65138;50.946;7.074;2023-02-11T11:46:41;8.27;;;4.05;;
76138;SDS011;65138;50.946;7.074;2023-02-11T11:49:12;6.03;;;2.97;;
76138;SDS011;65138;50.946;7.074;2023-02-11T11:52:08;5.07;;;2.60;;
76138;SDS011;65138;50.946;7.074;2023-02-11T11:55:00;6.47;;;3.40;;
76138;SDS011;65138;50.946;7.074;2023-02-11T11:57:30;4.57;;;2.17;;
76138;SDS011;65138;50.946;7.074;2023-02-11T11:59:59;5.70;;;2.92;;
76138;SDS011;65138;50.946;7.074;2023-02-11T12:02:39;7.63;;;2.40;;
76138;SDS011;65138;50.946;7.074;2023-02-11T12:05:25;4.25;;;2.28;;
76138;SDS011;65138;50.946;7.074;2023-02-11T12:11:23;5.95;;;2.58;;
76138;SDS011;65138;50.946;7.074;2023-02-11T12:14:05;3.90;;;1.95;;
76138;SDS011;65138;50.946;7.074;2023-02-11T12:17:04;4.05;;;2.22;;
76138;SDS011;65138;50.946;7.074;2023-02-11T12:22:44;4.72;;;3.03;;
76138;SDS011;65138;50.946;7.074;2023-02-11T12:25:34;5.50;;;3.10;;
76138;SDS011;65138;50.946;7.074;2023-02-11T12:33:55;5.95;;;3.55;;
76138;SDS011;65138;50.946;7.074;2023-02-11T12:36:44;4.40;;;2.60;;
76138;SDS011;65138;50.946;7.074;2023-02-11T12:39:39;6.65;;;2.25;;
76138;SDS011;65138;50.946;7.074;2023-02-11T12:48:47;3.30;;;2.13;;
76138;SDS011;65138;50.946;7.074;2023-02-11T12:51:45;4.35;;;2.25;;
76138;SDS011;65138;50.946;7.074;2023-02-11T13:00:05;4.20;;;2.50;;
76138;SDS011;65138;50.946;7.074;2023-02-11T13:05:08;4.30;;;2.50;;
76138;SDS011;65138;50.946;7.074;2023-02-11T13:07:44;3.67;;;2.47;;
76138;SDS011;65138;50.946;7.074;2023-02-11T13:13:01;4.68;;;2.58;;
76138;SDS011;65138;50.946;7.074;2023-02-11T13:15:47;3.72;;;2.00;;
76138;SDS011;65138;50.946;7.074;2023-02-11T13:24:25;3.60;;;1.90;;
76138;SDS011;65138;50.946;7.074;2023-02-11T13:27:14;4.70;;;2.53;;
76138;SDS011;65138;50.946;7.074;2023-02-11T13:35:32;4.00;;;2.65;;
76138;SDS011;65138;50.946;7.074;2023-02-11T13:38:02;4.85;;;2.72;;
76138;SDS011;65138;50.946;7.074;2023-02-11T13:40:34;6.03;;;3.63;;
76138;SDS011;65138;50.946;7.074;2023-02-11T13:43:06;4.03;;;2.60;;
76138;SDS011;65138;50.946;7.074;2023-02-11T13:45:46;3.97;;;2.90;;
76138;SDS011;65138;50.946;7.074;2023-02-11T13:48:14;4.25;;;2.58;;
76138;SDS011;65138;50.946;7.074;2023-02-11T13:50:46;6.68;;;2.88;;
76138;SDS011;65138;50.946;7.074;2023-02-11T13:53:14;5.65;;;2.75;;
76138;SDS011;65138;50.946;7.074;2023-02-11T13:55:43;4.90;;;2.90;;
76138;SDS011;65138;50.946;7.074;2023-02-11T13:58:16;5.18;;;2.90;;
76138;SDS011;65138;50.946;7.074;2023-02-11T14:00:56;4.50;;;2.67;;
76138;SDS011;65138;50.946;7.074;2023-02-11T14:03:36;4.50;;;2.35;;
76138;SDS011;65138;50.946;7.074;2023-02-11T14:06:22;6.03;;;3.22;;
76138;SDS011;65138;50.946;7.074;2023-02-11T14:09:32;4.20;;;2.72;;
76138;SDS011;65138;50.946;7.074;2023-02-11T14:17:44;4.10;;;2.80;;
76138;SDS011;65138;50.946;7.074;2023-02-11T14:23:20;4.10;;;2.72;;
76138;SDS011;65138;50.946;7.074;2023-02-11T14:26:04;4.32;;;3.03;;
76138;SDS011;65138;50.946;7.074;2023-02-11T14:32:00;6.70;;;4.05;;
76138;SDS011;65138;50.946;7.074;2023-02-11T14:34:50;5.45;;;3.75;;
76138;SDS011;65138;50.946;7.074;2023-02-11T14:37:27;5.45;;;3.78;;
76138;SDS011;65138;50.946;7.074;2023-02-11T14:43:02;5.57;;;3.53;;
76138;SDS011;65138;50.946;7.074;2023-02-11T14:45:56;4.93;;;3.47;;
76138;SDS011;65138;50.946;7.074;2023-02-11T14:48:30;6.32;;;2.95;;
76138;SDS011;65138;50.946;7.074;2023-02-11T14:53:35;5.85;;;3.80;;
76138;SDS011;65138;50.946;7.074;2023-02-11T14:56:02;5.28;;;3.00;;
76138;SDS011;65138;50.946;7.074;2023-02-11T14:58:31;5.20;;;3.40;;
76138;SDS011;65138;50.946;7.074;2023-02-11T15:03:59;13.70;;;7.63;;
76138;SDS011;65138;50.946;7.074;2023-02-11T15:06:28;15.82;;;8.70;;
76138;SDS011;65138;50.946;7.074;2023-02-11T15:11:53;15.80;;;8.93;;
76138;SDS011;65138;50.946;7.074;2023-02-11T15:14:22;22.40;;;10.00;;
76138;SDS011;65138;50.946;7.074;2023-02-11T15:16:55;16.50;;;7.72;;
76138;SDS011;65138;50.946;7.074;2023-02-11T15:19:25;16.50;;;6.95;;
76138;SDS011;65138;50.946;7.074;2023-02-11T15:21:55;8.48;;;5.80;;
76138;SDS011;65138;50.946;7.074;2023-02-11T15:27:08;9.85;;;5.43;;
76138;SDS011;65138;50.946;7.074;2023-02-11T15:29:43;10.70;;;5.45;;
76138;SDS011;65138;50.946;7.074;2023-02-11T15:32:15;8.45;;;5.15;;
76138;SDS011;65138;50.946;7.074;2023-02-11T15:34:43;6.93;;;4.50;;
76138;SDS011;65138;50.946;7.074;2023-02-11T15:37:13;8.50;;;4.57;;
76138;SDS011;65138;50.946;7.074;2023-02-11T15:39:46;7.93;;;4.28;;
76138;SDS011;65138;50.946;7.074;2023-02-11T15:45:10;6.80;;;4.13;;
76138;SDS011;65138;50.946;7.074;2023-02-11T15:47:41;6.72;;;4.40;;
76138;SDS011;65138;50.946;7.074;2023-02-11T15:50:20;6.45;;;3.97;;
76138;SDS011;65138;50.946;7.074;2023-02-11T15:52:47;7.07;;;3.95;;
76138;SDS011;65138;50.946;7.074;2023-02-11T15:55:14;6.15;;;3.80;;
76138;SDS011;65138;50.946;7.074;2023-02-11T15:57:48;6.60;;;3.92;;
76138;SDS011;65138;50.946;7.074;2023-02-11T16:00:17;8.60;;;3.70;;
76138;SDS011;65138;50.946;7.074;2023-02-11T16:02:45;7.38;;;3.95;;
76138;SDS011;65138;50.946;7.074;2023-02-11T16:05:33;5.38;;;3.50;;
76138;SDS011;65138;50.946;7.074;2023-02-11T16:08:12;6.57;;;3.80;;
76138;SDS011;65138;50.946;7.074;2023-02-11T16:11:00;5.65;;;3.90;;
76138;SDS011;65138;50.946;7.074;2023-02-11T16:13:44;5.75;;;3.92;;
76138;SDS011;65138;50.946;7.074;2023-02-11T16:16:17;6.38;;;3.63;;
76138;SDS011;65138;50.946;7.074;2023-02-11T16:18:48;6.88;;;3.55;;
76138;SDS011;65138;50.946;7.074;2023-02-11T16:21:23;5.88;;;3.65;;
76138;SDS011;65138;50.946;7.074;2023-02-11T16:24:00;6.55;;;4.00;;
76138;SDS011;65138;50.946;7.074;2023-02-11T16:26:36;6.22;;;3.38;;
76138;SDS011;65138;50.946;7.074;2023-02-11T16:31:38;8.00;;;4.53;;
76138;SDS011;65138;50.946;7.074;2023-02-11T16:34:17;9.05;;;5.65;;
76138;SDS011;65138;50.946;7.074;2023-02-11T16:36:45;9.40;;;5.25;;
76138;SDS011;65138;50.946;7.074;2023-02-11T16:39:13;11.85;;;5.43;;
76138;SDS011;65138;50.946;7.074;2023-02-11T16:41:40;7.90;;;5.13;;
76138;SDS011;65138;50.946;7.074;2023-02-11T16:44:06;8.43;;;5.30;;
76138;SDS011;65138;50.946;7.074;2023-02-11T16:46:33;16.25;;;7.05;;
76138;SDS011;65138;50.946;7.074;2023-02-11T16:49:08;11.55;;;6.35;;
76138;SDS011;65138;50.946;7.074;2023-02-11T16:51:40;13.25;;;6.45;;
76138;SDS011;65138;50.946;7.074;2023-02-11T16:54:09;9.88;;;6.10;;
76138;SDS011;65138;50.946;7.074;2023-02-11T16:56:40;10.25;;;5.22;;
76138;SDS011;65138;50.946;7.074;2023-02-11T16:59:06;11.40;;;5.40;;
76138;SDS011;65138;50.946;7.074;2023-02-11T17:01:32;11.05;;;5.53;;
76138;SDS011;65138;50.946;7.074;2023-02-11T17:03:58;9.52;;;4.60;;
76138;SDS011;65138;50.946;7.074;2023-02-11T17:06:24;11.60;;;5.38;;
76138;SDS011;65138;50.946;7.074;2023-02-11T17:08:51;10.35;;;5.07;;
76138;SDS011;65138;50.946;7.074;2023-02-11T17:11:17;8.45;;;4.50;;
76138;SDS011;65138;50.946;7.074;2023-02-11T17:13:44;9.30;;;4.65;;
76138;SDS011;65138;50.946;7.074;2023-02-11T17:16:20;9.70;;;5.65;;
76138;SDS011;65138;50.946;7.074;2023-02-11T17:21:13;9.82;;;5.65;;
76138;SDS011;65138;50.946;7.074;2023-02-11T17:23:39;10.25;;;6.00;;
76138;SDS011;65138;50.946;7.074;2023-02-11T17:26:05;10.20;;;5.72;;
76138;SDS011;65138;50.946;7.074;2023-02-11T17:28:32;9.25;;;5.80;;
76138;SDS011;65138;50.946;7.074;2023-02-11T17:30:58;9.15;;;4.85;;